createdAt,value
2019-04-27T00:01:05.288Z,11.93
2019-04-27T00:03:10.201Z,11.85
2019-04-27T00:05:46.556Z,11.91
2019-04-27T00:07:57.953Z,11.88
2019-04-27T00:10:00.546Z,11.91
2019-04-27T00:12:07.657Z,11.93
2019-04-27T00:14:10.320Z,11.92
2019-04-27T00:16:31.787Z,11.91
2019-04-27T00:18:55.875Z,11.95
2019-04-27T00:21:18.367Z,11.89
2019-04-27T00:23:23.607Z,11.82
2019-04-27T00:25:27.016Z,11.74
2019-04-27T00:27:28.765Z,11.76
2019-04-27T00:29:30.810Z,11.76
2019-04-27T00:31:33.662Z,11.73
2019-04-27T00:33:35.646Z,11.73
2019-04-27T00:35:49.822Z,11.75
2019-04-27T00:38:13.048Z,11.72
2019-04-27T00:40:19.334Z,11.68
2019-04-27T00:42:21.219Z,11.69
2019-04-27T00:44:23.687Z,11.67
2019-04-27T00:46:25.855Z,11.70
2019-04-27T00:48:27.861Z,11.70
2019-04-27T00:50:29.687Z,11.75
2019-04-27T00:52:32.611Z,11.69
2019-04-27T00:54:35.421Z,11.71
2019-04-27T00:56:55.352Z,11.68
2019-04-27T00:59:14.934Z,11.59
2019-04-27T01:01:43.606Z,11.67
2019-04-27T01:03:55.154Z,11.65
2019-04-27T01:05:57.269Z,11.62
2019-04-27T01:07:59.216Z,11.65
2019-04-27T01:10:03.007Z,11.61
2019-04-27T01:12:05.405Z,11.67
2019-04-27T01:14:07.322Z,11.68
2019-04-27T01:16:10.449Z,11.50
2019-04-27T01:18:15.407Z,11.53
2019-04-27T01:20:18.474Z,11.58
2019-04-27T01:22:20.313Z,11.64
2019-04-27T01:24:22.315Z,11.64
2019-04-27T01:26:38.812Z,11.59
2019-04-27T01:28:49.042Z,11.59
2019-04-27T01:30:54.037Z,11.67
2019-04-27T01:32:55.715Z,11.57
2019-04-27T01:34:59.104Z,11.57
2019-04-27T01:37:01.657Z,11.53
2019-04-27T01:39:08.480Z,11.67
2019-04-27T01:41:10.252Z,11.58
2019-04-27T01:43:12.030Z,11.42
2019-04-27T01:45:13.891Z,11.57
2019-04-27T01:47:15.965Z,11.51
2019-04-27T01:49:19.401Z,11.52
2019-04-27T01:51:21.232Z,11.53
2019-04-27T01:53:22.978Z,11.57
2019-04-27T01:55:24.981Z,11.56
2019-04-27T01:57:26.980Z,11.52
2019-04-27T01:59:30.024Z,11.53
2019-04-27T02:01:50.040Z,11.52
2019-04-27T02:04:02.487Z,11.48
2019-04-27T02:06:04.189Z,11.48
2019-04-27T02:08:05.860Z,11.40
2019-04-27T02:10:08.998Z,11.34
2019-04-27T02:12:11.365Z,11.38
2019-04-27T02:14:13.410Z,11.46
2019-04-27T02:16:15.286Z,11.37
2019-04-27T02:18:19.311Z,11.42
2019-04-27T02:21:18.900Z,11.47
2019-04-27T02:23:21.255Z,11.36
2019-04-27T02:25:23.144Z,11.37
2019-04-27T02:27:28.667Z,11.52
2019-04-27T02:29:56.499Z,11.49
2019-04-27T02:32:20.173Z,11.51
2019-04-27T02:34:23.658Z,11.48
2019-04-27T02:36:25.556Z,11.51
2019-04-27T02:38:27.434Z,11.46
2019-04-27T02:40:51.009Z,11.48
2019-04-27T02:42:54.627Z,11.44
2019-04-27T02:44:56.522Z,11.49
2019-04-27T02:47:00.288Z,11.45
2019-04-27T02:49:06.427Z,11.51
2019-04-27T02:51:09.917Z,11.56
2019-04-27T02:53:11.662Z,11.57
2019-04-27T02:55:13.313Z,11.59
2019-04-27T02:57:15.255Z,11.53
2019-04-27T02:59:19.675Z,11.64
2019-04-27T03:01:21.942Z,11.58
2019-04-27T03:03:23.719Z,11.58
2019-04-27T03:05:25.632Z,11.54
2019-04-27T03:07:30.239Z,11.41
2019-04-27T03:09:32.342Z,11.40
2019-04-27T03:11:34.173Z,11.46
2019-04-27T03:13:42.580Z,11.41
2019-04-27T03:16:07.035Z,11.37
2019-04-27T03:18:34.513Z,11.36
2019-04-27T03:20:41.959Z,11.33
2019-04-27T03:22:46.820Z,11.30
2019-04-27T03:25:20.559Z,11.18
2019-04-27T03:27:24.120Z,11.14
2019-04-27T03:29:26.218Z,10.96
2019-04-27T03:31:32.336Z,10.90
2019-04-27T03:33:32.915Z,10.83
2019-04-27T03:35:36.479Z,10.81
2019-04-27T03:37:40.404Z,10.77
2019-04-27T03:39:42.335Z,10.76
2019-04-27T03:41:44.168Z,10.76
2019-04-27T03:43:45.813Z,10.71
2019-04-27T03:45:51.775Z,10.58
2019-04-27T03:47:51.251Z,10.58
2019-04-27T03:49:54.211Z,10.43
2019-04-27T03:52:09.646Z,10.43
2019-04-27T03:54:40.256Z,10.23
2019-04-27T03:56:44.819Z,10.31
2019-04-27T03:58:51.642Z,10.20
2019-04-27T04:00:53.627Z,10.14
2019-04-27T04:02:55.546Z,10.21
2019-04-27T04:04:59.604Z,10.12
2019-04-27T04:07:12.192Z,10.10
2019-04-27T04:09:14.076Z,10.12
2019-04-27T04:11:24.497Z,10.12
2019-04-27T04:13:30.843Z,10.15
2019-04-27T04:15:55.101Z,10.02
2019-04-27T04:17:59.391Z,9.99
2019-04-27T04:20:01.912Z,10.10
2019-04-27T04:22:03.904Z,10.11
2019-04-27T04:24:05.606Z,10.17
2019-04-27T04:26:09.743Z,10.16
2019-04-27T04:29:53.661Z,10.21
2019-04-27T04:31:55.315Z,10.04
2019-04-27T04:33:59.514Z,10.06
2019-04-27T04:36:00.653Z,10.05
2019-04-27T04:38:02.558Z,10.14
2019-04-27T04:40:04.391Z,10.15
2019-04-27T04:42:29.959Z,10.00
2019-04-27T04:44:46.566Z,10.11
2019-04-27T04:47:15.608Z,10.16
2019-04-27T04:49:19.421Z,10.07
2019-04-27T04:51:21.094Z,10.05
2019-04-27T04:53:23.155Z,10.09
2019-04-27T04:55:24.952Z,10.15
2019-04-27T04:57:26.592Z,10.22
2019-04-27T04:59:29.126Z,10.18
2019-04-27T05:01:31.261Z,10.25
2019-04-27T05:03:33.180Z,10.29
2019-04-27T05:05:35.024Z,10.43
2019-04-27T05:07:38.628Z,10.44
2019-04-27T05:09:40.632Z,10.45
2019-04-27T05:11:42.406Z,10.47
2019-04-27T05:13:44.344Z,10.43
2019-04-27T05:15:46.130Z,10.57
2019-04-27T05:17:48.366Z,10.56
2019-04-27T05:19:52.259Z,10.54
2019-04-27T05:21:53.926Z,10.50
2019-04-27T05:23:55.628Z,10.49
2019-04-27T05:25:59.190Z,10.62
2019-04-27T05:28:01.020Z,10.59
2019-04-27T05:30:03.783Z,10.61
2019-04-27T05:32:05.735Z,10.58
2019-04-27T05:34:09.518Z,10.57
2019-04-27T05:36:11.395Z,10.62
2019-04-27T05:38:13.646Z,10.66
2019-04-27T05:40:15.462Z,10.67
2019-04-27T05:42:20.008Z,10.65
2019-04-27T05:44:35.083Z,10.73
2019-04-27T05:47:05.317Z,10.77
2019-04-27T05:49:09.683Z,10.81
2019-04-27T05:51:11.579Z,10.76
2019-04-27T05:53:13.538Z,10.76
2019-04-27T05:55:15.416Z,10.81
2019-04-27T05:57:17.305Z,10.78
2019-04-27T05:59:19.946Z,10.79
2019-04-27T06:01:21.688Z,10.82
2019-04-27T06:03:23.619Z,10.88
2019-04-27T06:05:25.555Z,10.82
2019-04-27T06:07:29.414Z,10.86
2019-04-27T06:09:31.211Z,10.84
2019-04-27T06:11:32.983Z,10.64
2019-04-27T06:13:35.234Z,10.72
2019-04-27T06:15:36.897Z,10.81
2019-04-27T06:17:38.830Z,10.69
2019-04-27T06:19:43.771Z,10.78
2019-04-27T06:21:44.397Z,10.87
2019-04-27T06:23:46.249Z,10.85
2019-04-27T06:25:49.215Z,10.75
2019-04-27T06:27:51.290Z,10.73
2019-04-27T06:29:53.279Z,10.65
2019-04-27T06:31:55.480Z,10.67
2019-04-27T06:33:57.227Z,10.80
2019-04-27T06:36:01.756Z,11.05
2019-04-27T06:38:03.826Z,11.12
2019-04-27T06:40:06.151Z,11.20
2019-04-27T06:42:16.687Z,11.30
2019-04-27T06:44:11.584Z,11.49
2019-04-27T06:46:13.313Z,11.66
2019-04-27T06:48:15.382Z,11.80
2019-04-27T06:50:17.178Z,11.85
2019-04-27T06:52:19.058Z,11.90
2019-04-27T06:54:21.543Z,12.12
2019-04-27T06:56:22.995Z,12.37
2019-04-27T06:58:24.773Z,12.51
2019-04-27T07:00:26.671Z,12.76
2019-04-27T07:02:29.234Z,12.63
2019-04-27T07:04:31.206Z,12.54
2019-04-27T07:06:32.955Z,12.30
2019-04-27T07:08:34.863Z,12.28
2019-04-27T07:10:39.030Z,12.20
2019-04-27T07:12:41.183Z,12.05
2019-04-27T07:14:52.416Z,11.93
2019-04-27T07:16:46.912Z,11.98
2019-04-27T07:18:50.368Z,11.85
2019-04-27T07:20:52.640Z,11.69
2019-04-27T07:22:54.566Z,11.74
2019-04-27T07:24:56.475Z,11.70
2019-04-27T07:26:59.694Z,11.82
2019-04-27T07:29:01.652Z,12.12
2019-04-27T07:31:03.647Z,12.22
2019-04-27T07:33:05.740Z,12.30
2019-04-27T07:35:07.371Z,12.27
2019-04-27T07:37:11.088Z,12.32
2019-04-27T07:39:13.117Z,12.20
2019-04-27T07:41:15.250Z,12.31
2019-04-27T07:43:29.308Z,12.35
2019-04-27T07:45:34.644Z,12.40
2019-04-27T07:47:36.957Z,12.57
2019-04-27T07:49:39.166Z,12.51
2019-04-27T07:51:41.248Z,12.75
2019-04-27T07:53:43.006Z,12.96
2019-04-27T07:55:44.757Z,12.96
2019-04-27T07:57:46.962Z,12.86
2019-04-27T07:59:50.154Z,12.72
2019-04-27T08:01:52.142Z,12.52
2019-04-27T08:03:54.028Z,12.45
2019-04-27T08:05:55.681Z,12.47
2019-04-27T08:07:57.315Z,12.37
2019-04-27T08:10:01.702Z,12.35
2019-04-27T08:12:03.059Z,12.38
2019-04-27T08:14:05.449Z,12.26
2019-04-27T08:16:09.183Z,12.16
2019-04-27T08:18:10.959Z,12.43
2019-04-27T08:20:12.783Z,12.35
2019-04-27T08:22:14.708Z,12.35
2019-04-27T08:24:16.683Z,12.10
2019-04-27T08:26:26.434Z,12.18
2019-04-27T08:28:41.537Z,12.44
2019-04-27T08:30:58.555Z,12.69
2019-04-27T08:33:03.594Z,13.07
2019-04-27T08:35:05.929Z,13.37
2019-04-27T08:37:09.159Z,13.32
2019-04-27T08:39:11.477Z,13.64
2019-04-27T08:41:14.543Z,13.83
2019-04-27T08:43:16.310Z,13.75
2019-04-27T08:45:19.588Z,13.47
2019-04-27T08:47:21.625Z,12.83
2019-04-27T08:49:23.470Z,12.69
2019-04-27T08:51:25.203Z,12.81
2019-04-27T08:53:26.966Z,12.91
2019-04-27T08:55:29.438Z,12.62
2019-04-27T08:57:31.648Z,12.47
2019-04-27T08:59:33.568Z,12.54
2019-04-27T09:01:35.893Z,12.42
2019-04-27T09:03:39.380Z,12.21
2019-04-27T09:05:41.671Z,12.36
2019-04-27T09:08:02.956Z,12.56
2019-04-27T09:10:09.776Z,12.78
2019-04-27T09:12:29.963Z,13.05
2019-04-27T09:14:40.757Z,13.60
2019-04-27T09:17:09.678Z,13.28
2019-04-27T09:19:23.377Z,13.07
2019-04-27T09:21:27.135Z,13.58
2019-04-27T09:23:28.885Z,13.79
2019-04-27T09:25:30.644Z,13.84
2019-04-27T09:27:32.322Z,13.61
2019-04-27T09:29:34.238Z,13.56
2019-04-27T09:31:35.903Z,14.24
2019-04-27T09:33:37.636Z,14.27
2019-04-27T09:35:39.511Z,14.72
2019-04-27T09:37:41.582Z,14.88
2019-04-27T09:39:43.572Z,15.30
2019-04-27T09:41:46.012Z,15.31
2019-04-27T09:43:49.128Z,14.83
2019-04-27T09:45:51.005Z,14.89
2019-04-27T09:47:53.005Z,14.35
2019-04-27T09:50:39.238Z,14.06
2019-04-27T09:52:41.665Z,13.79
2019-04-27T09:54:43.568Z,13.97
2019-04-27T09:56:46.771Z,13.99
2019-04-27T09:58:48.874Z,14.04
2019-04-27T10:00:50.669Z,13.99
2019-04-27T10:02:53.193Z,14.05
2019-04-27T10:04:56.499Z,14.27
2019-04-27T10:06:58.451Z,14.45
2019-04-27T10:09:00.517Z,14.41
2019-04-27T10:11:02.261Z,14.67
2019-04-27T10:13:04.644Z,14.84
2019-04-27T10:15:07.279Z,14.67
2019-04-27T10:17:09.481Z,14.55
2019-04-27T10:19:11.897Z,14.48
2019-04-27T10:21:13.897Z,14.21
2019-04-27T10:23:16.263Z,13.65
2019-04-27T10:25:23.932Z,14.03
2019-04-27T10:27:27.015Z,13.87
2019-04-27T10:29:29.094Z,13.70
2019-04-27T10:31:31.088Z,13.20
2019-04-27T10:33:33.113Z,13.42
2019-04-27T10:35:36.321Z,13.36
2019-04-27T10:37:38.889Z,13.42
2019-04-27T10:39:41.155Z,13.25
2019-04-27T10:41:43.171Z,13.40
2019-04-27T10:43:45.351Z,13.47
2019-04-27T10:45:47.426Z,13.17
2019-04-27T10:47:49.756Z,13.50
2019-04-27T10:49:51.964Z,14.13
2019-04-27T10:51:55.653Z,14.31
2019-04-27T10:53:57.836Z,14.33
2019-04-27T10:55:59.905Z,13.94
2019-04-27T10:58:01.874Z,13.89
2019-04-27T11:00:06.797Z,13.98
2019-04-27T11:02:09.872Z,13.42
2019-04-27T11:04:30.363Z,13.58
2019-04-27T11:06:35.880Z,13.26
2019-04-27T11:08:38.112Z,13.90
2019-04-27T11:10:40.166Z,14.44
2019-04-27T11:12:42.324Z,14.16
2019-04-27T11:14:44.282Z,14.03
2019-04-27T11:16:46.321Z,13.97
2019-04-27T11:18:48.584Z,13.93
2019-04-27T11:20:50.612Z,13.53
2019-04-27T11:23:06.657Z,13.62
2019-04-27T11:24:58.297Z,13.84
2019-04-27T11:27:00.401Z,14.00
2019-04-27T11:29:02.382Z,13.96
2019-04-27T11:31:05.622Z,13.66
2019-04-27T11:33:07.798Z,13.04
2019-04-27T11:35:21.649Z,12.53
2019-04-27T11:37:28.709Z,12.29
2019-04-27T11:39:30.954Z,11.76
2019-04-27T11:41:32.994Z,11.65
2019-04-27T11:43:36.163Z,11.90
2019-04-27T11:45:38.329Z,12.09
2019-04-27T11:47:40.380Z,12.08
2019-04-27T11:49:42.521Z,12.02
2019-04-27T11:51:46.631Z,12.16
2019-04-27T11:53:48.860Z,11.99
2019-04-27T11:55:50.844Z,12.08
2019-04-27T11:57:53.045Z,12.15
2019-04-27T11:59:56.287Z,12.24
2019-04-27T12:01:59.000Z,12.68
2019-04-27T12:04:01.846Z,12.86
2019-04-27T12:06:03.883Z,13.14
2019-04-27T12:08:06.733Z,12.70
2019-04-27T12:10:09.162Z,12.96
2019-04-27T12:12:18.193Z,13.00
2019-04-27T12:14:16.202Z,12.90
2019-04-27T12:16:18.569Z,12.75
2019-04-27T12:18:21.487Z,12.70
2019-04-27T12:20:25.631Z,12.14
2019-04-27T12:22:27.786Z,12.12
2019-04-27T12:24:29.803Z,12.42
2019-04-27T12:26:50.592Z,12.75
2019-04-27T12:28:53.249Z,13.25
2019-04-27T12:31:13.230Z,13.43
2019-04-27T12:33:15.226Z,13.25
2019-04-27T12:35:17.334Z,13.23
2019-04-27T12:37:19.646Z,13.37
2019-04-27T12:39:21.645Z,13.57
2019-04-27T12:41:24.094Z,13.88
2019-04-27T12:43:26.223Z,13.83
2019-04-27T12:45:28.415Z,13.91
2019-04-27T12:47:30.648Z,13.63
2019-04-27T12:49:33.037Z,13.46
2019-04-27T12:51:35.823Z,13.47
2019-04-27T12:53:55.959Z,13.54
2019-04-27T12:56:06.753Z,13.64
2019-04-27T12:58:16.962Z,13.29
2019-04-27T13:00:22.611Z,13.48
2019-04-27T13:02:28.122Z,13.47
2019-04-27T13:04:30.122Z,13.72
2019-04-27T13:06:32.271Z,13.41
2019-04-27T13:08:35.707Z,13.51
2019-04-27T13:10:38.108Z,13.53
2019-04-27T13:12:40.263Z,13.64
2019-04-27T13:14:42.598Z,13.36
2019-04-27T13:16:45.720Z,13.50
2019-04-27T13:18:48.636Z,13.40
2019-04-27T13:20:50.844Z,13.46
2019-04-27T13:22:52.867Z,13.55
2019-04-27T13:24:56.651Z,13.79
2019-04-27T13:26:59.950Z,13.86
2019-04-27T13:29:01.993Z,13.91
2019-04-27T13:31:06.749Z,13.98
2019-04-27T13:33:09.124Z,14.28
2019-04-27T13:35:11.541Z,13.94
2019-04-27T13:37:36.497Z,13.91
2019-04-27T13:39:38.717Z,13.57
2019-04-27T13:41:41.006Z,13.93
2019-04-27T13:43:43.035Z,14.08
2019-04-27T13:46:10.294Z,14.26
2019-04-27T13:48:30.981Z,13.94
2019-04-27T13:50:40.169Z,13.81
2019-04-27T13:52:42.844Z,13.97
2019-04-27T13:54:45.874Z,13.81
2019-04-27T13:56:48.105Z,13.10
2019-04-27T13:58:50.157Z,12.91
2019-04-27T14:00:52.572Z,12.60
2019-04-27T14:02:54.687Z,12.85
2019-04-27T14:04:56.742Z,12.85
2019-04-27T14:06:59.075Z,12.97
2019-04-27T14:09:04.450Z,12.98
2019-04-27T14:11:09.529Z,13.28
2019-04-27T14:13:12.144Z,13.62
2019-04-27T14:15:14.198Z,13.74
2019-04-27T14:17:19.377Z,13.76
2019-04-27T14:19:22.810Z,13.90
2019-04-27T14:21:24.877Z,13.75
2019-04-27T14:23:28.843Z,13.86
2019-04-27T14:25:30.838Z,13.89
2019-04-27T14:27:40.631Z,13.63
2019-04-27T14:29:43.040Z,13.71
2019-04-27T14:31:45.075Z,14.07
2019-04-27T14:33:48.423Z,13.81
2019-04-27T14:35:50.781Z,13.48
2019-04-27T14:37:53.158Z,13.49
2019-04-27T14:39:54.981Z,13.38
2019-04-27T14:41:58.049Z,13.15
2019-04-27T14:44:07.763Z,13.33
2019-04-27T14:46:04.294Z,13.17
2019-04-27T14:48:08.165Z,13.05
2019-04-27T14:50:10.502Z,12.90
2019-04-27T14:52:13.841Z,12.66
2019-04-27T14:54:17.119Z,12.66
2019-04-27T14:56:19.216Z,12.78
2019-04-27T14:58:21.506Z,12.82
2019-04-27T15:00:23.651Z,12.68
2019-04-27T15:02:25.763Z,12.82
2019-04-27T15:04:27.872Z,12.69
2019-04-27T15:06:32.491Z,12.59
2019-04-27T15:08:38.248Z,12.35
2019-04-27T15:10:38.590Z,12.53
2019-04-27T15:12:40.651Z,12.56
2019-04-27T15:14:42.697Z,12.48
2019-04-27T15:16:47.152Z,12.15
2019-04-27T15:18:53.811Z,12.11
2019-04-27T15:20:58.440Z,12.03
2019-04-27T15:23:01.078Z,12.02
2019-04-27T15:25:12.936Z,12.09
2019-04-27T15:27:11.600Z,12.20
2019-04-27T15:29:15.119Z,12.08
2019-04-27T15:31:27.035Z,12.30
2019-04-27T15:33:53.295Z,12.00
2019-04-27T15:36:02.068Z,11.87
2019-04-27T15:38:13.740Z,12.06
2019-04-27T15:40:33.342Z,12.17
2019-04-27T15:42:49.633Z,12.39
2019-04-27T15:44:49.936Z,12.21
2019-04-27T15:46:51.661Z,12.11
2019-04-27T15:48:54.365Z,11.80
2019-04-27T15:51:03.328Z,11.93
2019-04-27T15:53:09.464Z,12.20
2019-04-27T15:55:31.168Z,12.08
2019-04-27T15:57:13.869Z,11.91
2019-04-27T15:59:16.159Z,12.09
2019-04-27T16:01:18.194Z,12.28
2019-04-27T16:03:22.676Z,12.37
2019-04-27T16:05:28.683Z,12.29
2019-04-27T16:07:31.743Z,12.24
2019-04-27T16:09:32.605Z,12.19
2019-04-27T16:11:34.634Z,12.18
2019-04-27T16:13:38.271Z,12.15
2019-04-27T16:15:40.378Z,12.40
2019-04-27T16:17:50.910Z,12.35
2019-04-27T16:19:50.118Z,12.17
2019-04-27T16:21:54.284Z,12.00
2019-04-27T16:23:54.935Z,11.96
2019-04-27T16:25:58.174Z,12.00
2019-04-27T16:28:04.587Z,12.07
2019-04-27T16:30:11.591Z,12.28
2019-04-27T16:32:11.309Z,12.29
2019-04-27T16:34:13.043Z,12.18
2019-04-27T16:36:15.305Z,12.21
2019-04-27T16:38:38.717Z,12.14
2019-04-27T16:40:40.958Z,12.07
2019-04-27T16:42:45.250Z,11.96
2019-04-27T16:44:49.555Z,11.86
2019-04-27T16:46:51.248Z,11.78
2019-04-27T16:48:55.239Z,11.87
2019-04-27T16:50:59.261Z,12.01
2019-04-27T16:53:01.288Z,11.89
2019-04-27T16:55:03.576Z,12.00
2019-04-27T16:57:07.980Z,12.12
2019-04-27T16:59:36.446Z,11.72
2019-04-27T17:01:22.358Z,11.20
2019-04-27T17:03:24.611Z,10.90
2019-04-27T17:05:30.860Z,10.72
2019-04-27T17:07:37.367Z,10.64
2019-04-27T17:09:36.243Z,10.74
2019-04-27T17:11:43.806Z,10.75
2019-04-27T17:13:49.710Z,10.80
2019-04-27T17:16:24.733Z,10.94
2019-04-27T17:18:35.978Z,10.94
2019-04-27T17:20:39.604Z,11.17
2019-04-27T17:22:45.551Z,11.16
2019-04-27T17:24:49.177Z,11.24
2019-04-27T17:26:50.580Z,11.29
2019-04-27T17:28:59.277Z,11.48
2019-04-27T17:31:01.600Z,11.47
2019-04-27T17:33:15.100Z,11.47
2019-04-27T17:35:15.171Z,11.43
2019-04-27T17:37:16.866Z,11.37
2019-04-27T17:39:19.303Z,11.47
2019-04-27T17:41:22.830Z,11.45
2019-04-27T17:43:24.856Z,11.47
2019-04-27T17:45:30.502Z,11.45
2019-04-27T17:47:31.501Z,11.45
2019-04-27T17:49:33.692Z,11.51
2019-04-27T17:51:42.894Z,11.61
2019-04-27T17:53:43.003Z,11.56
2019-04-27T17:55:45.040Z,11.52
2019-04-27T17:57:49.073Z,11.57
2019-04-27T17:59:58.862Z,11.65
2019-04-27T18:02:00.691Z,11.69
2019-04-27T18:04:03.102Z,11.71
2019-04-27T18:06:05.227Z,11.63
2019-04-27T18:08:08.373Z,11.55
2019-04-27T18:10:13.433Z,11.43
2019-04-27T18:12:15.812Z,11.42
2019-04-27T18:14:19.435Z,11.44
2019-04-27T18:16:30.446Z,11.46
2019-04-27T18:18:41.002Z,11.47
2019-04-27T18:20:43.082Z,11.50
2019-04-27T18:22:49.238Z,11.40
2019-04-27T18:25:06.021Z,11.45
2019-04-27T18:27:13.467Z,11.40
2019-04-27T18:29:15.603Z,11.36
2019-04-27T18:31:17.963Z,11.36
2019-04-27T18:33:20.201Z,11.38
2019-04-27T18:35:26.221Z,11.42
2019-04-27T18:37:28.223Z,11.33
2019-04-27T18:39:30.388Z,11.32
2019-04-27T18:41:32.440Z,11.35
2019-04-27T18:43:34.626Z,11.38
2019-04-27T18:45:38.043Z,11.34
2019-04-27T18:47:43.181Z,11.35
2019-04-27T18:50:14.736Z,11.34
2019-04-27T18:52:35.635Z,11.36
2019-04-27T18:54:40.744Z,11.41
2019-04-27T18:56:41.811Z,11.32
2019-04-27T18:58:43.981Z,11.22
2019-04-27T19:00:48.338Z,10.82
2019-04-27T19:02:50.792Z,10.46
2019-04-27T19:04:52.869Z,10.25
2019-04-27T19:06:55.129Z,10.18
2019-04-27T19:08:58.985Z,10.19
2019-04-27T19:11:01.156Z,10.25
2019-04-27T19:13:03.353Z,10.31
2019-04-27T19:15:08.015Z,10.31
2019-04-27T19:17:10.682Z,10.37
2019-04-27T19:19:12.836Z,10.39
2019-04-27T19:21:14.925Z,10.38
2019-04-27T19:23:17.114Z,10.37
2019-04-27T19:25:33.297Z,10.49
2019-04-27T19:27:54.759Z,10.53
2019-04-27T19:30:01.160Z,10.45
2019-04-27T19:32:03.474Z,10.50
2019-04-27T19:34:06.875Z,10.53
2019-04-27T19:36:08.884Z,10.50
2019-04-27T19:38:11.039Z,10.57
2019-04-27T19:40:13.498Z,10.65
2019-04-27T19:42:15.065Z,10.60
2019-04-27T19:44:18.743Z,10.58
2019-04-27T19:46:21.336Z,10.62
2019-04-27T19:48:24.607Z,10.64
2019-04-27T19:50:28.568Z,10.70
2019-04-27T19:52:30.883Z,10.72
2019-04-27T19:54:33.075Z,10.82
2019-04-27T19:56:38.410Z,10.86
2019-04-27T19:58:45.221Z,10.81
2019-04-27T20:01:11.495Z,10.80
2019-04-27T20:03:08.730Z,10.93
2019-04-27T20:05:16.310Z,10.94
2019-04-27T20:07:18.206Z,10.94
2019-04-27T20:09:25.740Z,10.94
2019-04-27T20:11:27.758Z,10.89
2019-04-27T20:13:29.812Z,10.94
2019-04-27T20:15:31.840Z,10.96
2019-04-27T20:17:34.012Z,11.04
2019-04-27T20:19:36.298Z,11.06
2019-04-27T20:21:38.374Z,11.06
2019-04-27T20:23:40.880Z,11.06
2019-04-27T20:25:44.114Z,11.15
2019-04-27T20:27:49.548Z,11.15
2019-04-27T20:29:52.473Z,11.11
2019-04-27T20:31:54.516Z,11.19
2019-04-27T20:33:56.644Z,11.13
2019-04-27T20:35:58.650Z,11.18
2019-04-27T20:38:00.712Z,11.18
2019-04-27T20:40:03.511Z,11.20
2019-04-27T20:42:05.770Z,11.29
2019-04-27T20:44:08.254Z,11.31
2019-04-27T20:46:11.730Z,11.24
2019-04-27T20:48:14.185Z,11.27
2019-04-27T20:50:16.213Z,11.36
2019-04-27T20:52:37.910Z,11.32
2019-04-27T20:54:41.525Z,11.28
2019-04-27T20:56:44.109Z,11.33
2019-04-27T20:58:45.807Z,11.32
2019-04-27T21:00:49.259Z,11.22
2019-04-27T21:02:58.071Z,10.98
2019-04-27T21:05:21.086Z,10.30
2019-04-27T21:07:38.304Z,9.71
2019-04-27T21:09:41.414Z,9.42
2019-04-27T21:11:45.488Z,9.27
2019-04-27T21:13:47.661Z,9.23
2019-04-27T21:15:50.912Z,9.21
2019-04-27T21:17:53.271Z,9.20
2019-04-27T21:19:55.320Z,9.17
2019-04-27T21:21:57.573Z,9.19
2019-04-27T21:23:59.623Z,9.05
2019-04-27T21:26:02.280Z,9.12
2019-04-27T21:28:15.314Z,9.16
2019-04-27T21:30:08.665Z,9.15
2019-04-27T21:32:11.162Z,9.20
2019-04-27T21:34:13.328Z,9.17
2019-04-27T21:36:15.413Z,9.15
2019-04-27T21:38:17.792Z,9.19
2019-04-27T21:40:21.378Z,9.26
2019-04-27T21:42:23.627Z,9.29
2019-04-27T21:44:25.650Z,9.27
2019-04-27T21:46:27.780Z,9.29
2019-04-27T21:48:31.251Z,9.36
2019-04-27T21:50:33.730Z,9.40
2019-04-27T21:52:38.058Z,9.42
2019-04-27T21:54:41.202Z,9.47
2019-04-27T21:56:43.409Z,9.47
2019-04-27T21:58:45.541Z,9.47
2019-04-27T22:01:13.019Z,9.44
2019-04-27T22:03:16.213Z,9.50
2019-04-27T22:05:18.811Z,9.47
2019-04-27T22:07:21.606Z,9.49
2019-04-27T22:09:23.666Z,9.44
2019-04-27T22:11:25.894Z,9.44
2019-04-27T22:13:28.254Z,9.47
2019-04-27T22:15:31.410Z,9.46
2019-04-27T22:17:33.869Z,9.44
2019-04-27T22:19:36.937Z,9.45
2019-04-27T22:21:39.153Z,9.42
2019-04-27T22:24:01.055Z,9.47
2019-04-27T22:26:03.191Z,9.54
2019-04-27T22:28:05.505Z,9.59
2019-04-27T22:30:08.320Z,9.56
2019-04-27T22:32:10.761Z,9.64
2019-04-27T22:34:12.446Z,9.68
2019-04-27T22:36:14.704Z,9.69
2019-04-27T22:38:16.907Z,9.60
2019-04-27T22:40:41.943Z,9.58
2019-04-27T22:43:19.138Z,9.66
2019-04-27T22:45:26.971Z,9.68
2019-04-27T22:47:31.861Z,9.67
2019-04-27T22:49:34.354Z,9.73
2019-04-27T22:51:36.039Z,9.75
2019-04-27T22:53:38.152Z,9.65
2019-04-27T22:55:59.822Z,9.76
2019-04-27T22:58:08.481Z,9.80
2019-04-27T23:00:25.802Z,9.77
2019-04-27T23:02:52.150Z,9.81
2019-04-27T23:04:57.408Z,9.82
2019-04-27T23:07:00.611Z,9.88
2019-04-27T23:09:04.649Z,9.93
2019-04-27T23:11:10.824Z,9.96
2019-04-27T23:15:19.327Z,9.93
2019-04-27T23:17:37.502Z,9.66
2019-04-27T23:19:40.852Z,9.46
2019-04-27T23:21:43.501Z,9.31
2019-04-27T23:23:45.602Z,9.16
2019-04-27T23:25:51.211Z,9.07
2019-04-27T23:27:53.238Z,8.99
2019-04-27T23:29:55.236Z,8.97
2019-04-27T23:32:03.568Z,8.85
2019-04-27T23:34:05.573Z,8.88
2019-04-27T23:36:07.653Z,8.94
2019-04-27T23:38:17.583Z,9.00
2019-04-27T23:40:14.133Z,9.03
2019-04-27T23:42:16.142Z,9.02
2019-04-27T23:44:18.285Z,8.95
2019-04-27T23:46:21.479Z,8.92
2019-04-27T23:48:25.034Z,8.87
2019-04-27T23:50:31.289Z,8.80
2019-04-27T23:52:52.980Z,8.82
2019-04-27T23:54:55.198Z,8.85
2019-04-27T23:56:57.244Z,8.81
2019-04-27T23:58:59.702Z,8.86
